Time;durP1;ratioP1;P1;durP2;ratioP2;P2;SDS_P1;SDS_P2;PMS_P1;PMS_P2;Temp;Humidity;BMP_temperature;BMP_pressure;BME280_temperature;BME280_humidity;BME280_pressure;Samples;Min_cycle;Max_cycle;Signal;HPM_P1;HPM_P2
2022/09/14 00:00:56;;;;;;;2.25;1.20;;;15.20;99.90;;;;;;4991307;28;20467;-62
2022/09/14 00:03:22;;;;;;;2.47;1.38;;;15.10;99.90;;;;;;5004066;28;20545;-61
2022/09/14 00:05:48;;;;;;;5.03;1.17;;;15.10;99.90;;;;;;4993472;28;20126;-61
2022/09/14 00:08:15;;;;;;;4.43;1.20;;;15.10;99.90;;;;;;4990788;28;20039;-61
2022/09/14 00:10:45;;;;;;;4.53;1.50;;;15.10;99.90;;;;;;4990809;28;20038;-61
2022/09/14 00:13:13;;;;;;;5.63;1.35;;;15.10;99.90;;;;;;4990383;28;20031;-61
2022/09/14 00:15:41;;;;;;;7.10;2.05;;;15.10;99.90;;;;;;4985113;28;20034;-61
2022/09/14 00:18:09;;;;;;;5.07;1.30;;;15.10;99.90;;;;;;4988309;28;20054;-61
2022/09/14 00:20:35;;;;;;;4.22;1.63;;;15.00;99.90;;;;;;4991318;28;20063;-61
2022/09/14 00:23:01;;;;;;;4.13;1.10;;;15.00;99.90;;;;;;4993145;28;20057;-61
2022/09/14 00:25:27;;;;;;;4.05;1.20;;;15.00;99.90;;;;;;4990381;28;20049;-61
2022/09/14 00:27:55;;;;;;;6.22;1.55;;;15.00;99.90;;;;;;4986438;28;20022;-61
2022/09/14 00:30:22;;;;;;;2.83;1.25;;;15.00;99.90;;;;;;4989858;28;20038;-61
2022/09/14 00:32:48;;;;;;;7.22;1.50;;;15.00;99.90;;;;;;4990481;28;20030;-61
2022/09/14 00:35:15;;;;;;;4.55;1.30;;;15.00;99.90;;;;;;4991347;28;20446;-60
2022/09/14 00:37:41;;;;;;;6.93;1.77;;;15.00;99.90;;;;;;4987644;28;20109;-59
2022/09/14 00:40:11;;;;;;;4.85;1.67;;;15.00;99.90;;;;;;4990069;28;20026;-59
2022/09/14 00:42:37;;;;;;;10.85;1.42;;;15.00;99.90;;;;;;4988035;28;20485;-59
2022/09/14 00:45:14;;;;;;;5.80;1.70;;;15.00;99.90;;;;;;4986979;28;20122;-59
2022/09/14 00:47:42;;;;;;;4.30;1.60;;;15.00;99.90;;;;;;4982825;28;20107;-60
2022/09/14 00:50:09;;;;;;;7.45;1.80;;;15.10;99.90;;;;;;4991771;28;20034;-59
2022/09/14 00:52:39;;;;;;;5.97;1.73;;;15.10;99.90;;;;;;4990836;28;20025;-59
2022/09/14 00:55:12;;;;;;;3.05;1.58;;;15.00;99.90;;;;;;4993733;28;20033;-59
2022/09/14 00:57:42;;;;;;;4.40;1.33;;;15.00;99.90;;;;;;4989830;28;20029;-59
2022/09/14 01:00:10;;;;;;;8.18;1.67;;;15.00;99.90;;;;;;4991261;28;20034;-60
2022/09/14 01:02:37;;;;;;;3.17;1.67;;;15.10;99.90;;;;;;4982707;28;20019;-60
2022/09/14 01:05:04;;;;;;;3.10;1.10;;;15.10;99.90;;;;;;4994722;28;20022;-59
2022/09/14 01:07:51;;;;;;;3.75;1.30;;;15.10;99.90;;;;;;4990455;28;20046;-59
2022/09/14 01:10:28;;;;;;;4.82;1.30;;;15.00;99.90;;;;;;4989590;28;20042;-60
2022/09/14 01:13:21;;;;;;;3.70;1.30;;;15.00;99.90;;;;;;4991506;28;20125;-59
2022/09/14 01:16:06;;;;;;;4.90;1.40;;;15.00;99.90;;;;;;4987253;28;20037;-59
2022/09/14 01:18:50;;;;;;;5.70;1.30;;;15.00;99.90;;;;;;4980915;28;20022;-59
2022/09/14 01:21:27;;;;;;;6.03;1.40;;;15.00;99.90;;;;;;4986308;28;20482;-59
2022/09/14 01:24:15;;;;;;;3.92;1.50;;;15.00;99.90;;;;;;4978887;28;20113;-59
2022/09/14 01:26:44;;;;;;;4.28;2.15;;;15.00;99.90;;;;;;4985047;28;20380;-59
2022/09/14 01:29:21;;;;;;;6.45;1.48;;;15.10;99.90;;;;;;4991828;28;20038;-58
2022/09/14 01:32:01;;;;;;;2.58;1.48;;;15.00;99.90;;;;;;4991622;28;20066;-60
2022/09/14 01:34:47;;;;;;;5.10;1.35;;;15.10;99.90;;;;;;4979368;28;20031;-59
2022/09/14 01:37:25;;;;;;;4.10;1.60;;;15.10;99.90;;;;;;4989565;28;20039;-59
2022/09/14 01:40:26;;;;;;;6.30;1.60;;;15.10;99.90;;;;;;4991219;28;20041;-59
2022/09/14 01:43:03;;;;;;;5.05;1.83;;;15.10;99.90;;;;;;4954099;28;20514;-59
2022/09/14 01:45:30;;;;;;;5.65;1.83;;;15.10;99.90;;;;;;4965088;28;20062;-59
2022/09/14 01:48:06;;;;;;;5.97;1.48;;;15.10;99.90;;;;;;4965990;28;20038;-59
2022/09/14 01:50:46;;;;;;;4.97;1.67;;;15.10;99.90;;;;;;4965646;28;20146;-59
2022/09/14 01:53:36;;;;;;;6.32;1.77;;;15.10;99.90;;;;;;4970025;28;20031;-60
2022/09/14 01:56:14;;;;;;;5.13;1.60;;;15.10;99.90;;;;;;4968520;28;20129;-60
2022/09/14 01:58:46;;;;;;;6.45;1.85;;;15.10;99.90;;;;;;4967545;28;20074;-59
2022/09/14 02:01:18;;;;;;;2.45;1.40;;;15.10;99.90;;;;;;4957580;28;20027;-59
2022/09/14 02:03:51;;;;;;;3.05;1.40;;;15.10;99.90;;;;;;4968111;28;20042;-59
2022/09/14 02:06:31;;;;;;;5.03;1.50;;;15.10;99.90;;;;;;4963454;28;20066;-59
2022/09/14 02:08:59;;;;;;;3.67;1.38;;;15.10;99.90;;;;;;4968817;28;20027;-59
2022/09/14 02:11:25;;;;;;;6.20;1.50;;;15.20;99.90;;;;;;4967437;28;20047;-60
2022/09/14 02:13:51;;;;;;;3.72;1.50;;;15.20;99.90;;;;;;4969822;28;20043;-60
2022/09/14 02:16:18;;;;;;;4.57;2.05;;;15.20;99.90;;;;;;4973283;28;20038;-60
2022/09/14 02:18:43;;;;;;;4.72;2.65;;;15.20;99.90;;;;;;4988502;28;21679;-60
2022/09/14 02:21:17;;;;;;;11.02;2.00;;;15.10;99.90;;;;;;4990508;28;20045;-60
2022/09/14 02:23:43;;;;;;;6.20;2.03;;;15.20;99.90;;;;;;4976512;28;20426;-60
2022/09/14 02:26:09;;;;;;;4.10;1.80;;;15.20;99.90;;;;;;4989710;28;20109;-61
2022/09/14 02:28:35;;;;;;;6.50;1.92;;;15.20;99.90;;;;;;4988018;28;20049;-60
2022/09/14 02:31:21;;;;;;;5.18;1.75;;;15.20;99.90;;;;;;4987708;28;20498;-60
2022/09/14 02:33:52;;;;;;;4.72;2.13;;;15.20;99.90;;;;;;4967406;28;20061;-60
2022/09/14 02:36:42;;;;;;;3.88;1.98;;;15.20;99.90;;;;;;4983093;28;20116;-60
2022/09/14 02:39:25;;;;;;;5.30;2.10;;;15.20;99.90;;;;;;4984968;28;20026;-60
2022/09/14 02:42:05;;;;;;;3.45;2.40;;;15.20;99.90;;;;;;4986335;28;20062;-60
2022/09/14 02:44:42;;;;;;;5.80;2.10;;;15.20;99.90;;;;;;4985579;28;20037;-60
2022/09/14 02:47:26;;;;;;;3.13;2.05;;;15.20;99.90;;;;;;4987385;28;20042;-60
2022/09/14 02:50:13;;;;;;;7.20;2.10;;;15.20;99.90;;;;;;4983550;28;20100;-60
2022/09/14 02:53:00;;;;;;;7.80;2.85;;;15.20;99.90;;;;;;4980220;28;20910;-60
2022/09/14 02:55:31;;;;;;;3.88;2.20;;;15.20;99.90;;;;;;4983520;28;20486;-60
2022/09/14 02:58:06;;;;;;;8.65;1.90;;;15.20;99.90;;;;;;4989185;28;20034;-59
2022/09/14 03:00:36;;;;;;;3.90;2.40;;;15.30;99.90;;;;;;4987500;28;20129;-60
2022/09/14 03:03:04;;;;;;;3.80;2.28;;;15.30;99.90;;;;;;4987658;28;20030;-59
2022/09/14 03:05:30;;;;;;;6.07;2.17;;;15.30;99.90;;;;;;4987673;28;20189;-59
2022/09/14 03:07:56;;;;;;;8.45;2.60;;;15.20;99.90;;;;;;4990489;28;20105;-59
2022/09/14 03:10:21;;;;;;;5.68;2.58;;;15.20;99.90;;;;;;4980071;28;20035;-59
2022/09/14 03:12:47;;;;;;;7.60;2.38;;;15.20;99.90;;;;;;4977211;28;20084;-59
2022/09/14 03:15:13;;;;;;;3.75;2.30;;;15.20;99.90;;;;;;4987489;28;20061;-59
2022/09/14 03:17:39;;;;;;;4.28;2.40;;;15.20;99.90;;;;;;4987525;28;20061;-59
2022/09/14 03:20:05;;;;;;;4.07;2.80;;;15.20;99.90;;;;;;4990186;28;20026;-59
2022/09/14 03:22:32;;;;;;;6.60;2.60;;;15.20;99.90;;;;;;4988491;28;20594;-59
2022/09/14 03:24:58;;;;;;;6.57;2.50;;;15.20;99.90;;;;;;4987338;28;20073;-59
2022/09/14 03:27:23;;;;;;;5.32;3.10;;;15.30;99.90;;;;;;4986938;28;20030;-59
2022/09/14 03:29:49;;;;;;;5.13;2.40;;;15.30;99.90;;;;;;4990192;28;20141;-59
2022/09/14 03:32:15;;;;;;;3.20;2.53;;;15.20;99.90;;;;;;4990114;28;20026;-59
2022/09/14 03:34:41;;;;;;;5.78;3.58;;;15.30;99.90;;;;;;4992351;28;20460;-59
2022/09/14 03:37:07;;;;;;;3.97;2.40;;;15.30;99.90;;;;;;4983109;28;20497;-59
2022/09/14 03:39:33;;;;;;;8.50;2.50;;;15.30;99.90;;;;;;4990560;28;20046;-60
2022/09/14 03:41:58;;;;;;;4.70;2.85;;;15.30;99.90;;;;;;5004658;23;20065;-61
2022/09/14 03:44:24;;;;;;;4.43;2.45;;;15.30;99.90;;;;;;4991900;28;20117;-62
2022/09/14 03:46:50;;;;;;;5.47;2.63;;;15.30;99.90;;;;;;4993749;28;20057;-61
2022/09/14 03:49:16;;;;;;;6.60;2.80;;;15.30;99.90;;;;;;4991064;28;20065;-61
2022/09/14 03:51:41;;;;;;;6.93;2.20;;;15.30;99.90;;;;;;4990830;28;20031;-61
2022/09/14 03:54:07;;;;;;;3.92;2.75;;;15.30;99.90;;;;;;4992877;28;20026;-61
2022/09/14 03:56:33;;;;;;;4.68;2.30;;;15.30;99.90;;;;;;4991125;28;20026;-61
2022/09/14 03:58:58;;;;;;;7.20;2.58;;;15.30;99.90;;;;;;4992879;28;20037;-61
2022/09/14 04:01:24;;;;;;;5.93;2.83;;;15.30;99.90;;;;;;4989720;28;20034;-61
2022/09/14 04:03:50;;;;;;;6.15;2.65;;;15.30;99.90;;;;;;4993246;28;20034;-62
2022/09/14 04:06:17;;;;;;;9.63;2.92;;;15.30;99.90;;;;;;4992492;28;20033;-61
2022/09/14 04:08:44;;;;;;;4.63;3.08;;;15.30;99.90;;;;;;4991606;28;20034;-61
2022/09/14 04:11:15;;;;;;;5.20;2.72;;;15.30;99.90;;;;;;4982551;28;20125;-60
2022/09/14 04:13:42;;;;;;;5.20;2.50;;;15.30;99.90;;;;;;4991455;28;20026;-60
2022/09/14 04:16:08;;;;;;;6.50;2.63;;;15.40;99.90;;;;;;4993164;28;20116;-61
2022/09/14 04:18:33;;;;;;;8.82;3.05;;;15.40;99.90;;;;;;4991178;28;20137;-62
2022/09/14 04:21:02;;;;;;;4.78;2.83;;;15.40;99.90;;;;;;4992661;28;20026;-62
2022/09/14 04:23:28;;;;;;;7.13;3.20;;;15.40;99.90;;;;;;4989029;28;20034;-61
2022/09/14 04:25:54;;;;;;;6.63;2.75;;;15.40;99.90;;;;;;4989688;28;20037;-61
2022/09/14 04:28:20;;;;;;;5.90;3.20;;;15.40;99.90;;;;;;4990855;28;20489;-61
2022/09/14 04:30:58;;;;;;;3.53;2.78;;;15.40;99.90;;;;;;4991192;28;20125;-60
2022/09/14 04:33:24;;;;;;;4.88;3.10;;;15.40;99.90;;;;;;4990368;28;20034;-62
2022/09/14 04:35:58;;;;;;;5.53;2.70;;;15.40;99.90;;;;;;4990822;28;20049;-61
2022/09/14 04:38:24;;;;;;;10.57;2.67;;;15.40;99.90;;;;;;4990202;28;20064;-61
2022/09/14 04:40:50;;;;;;;5.43;2.65;;;15.40;99.90;;;;;;4992655;28;20030;-61
2022/09/14 04:43:15;;;;;;;3.33;2.40;;;15.40;99.90;;;;;;4990980;28;20451;-61
2022/09/14 04:45:41;;;;;;;6.15;3.20;;;15.40;99.90;;;;;;4988058;28;20034;-61
2022/09/14 04:48:07;;;;;;;8.45;2.80;;;15.40;99.90;;;;;;4992408;28;20036;-61
2022/09/14 04:50:33;;;;;;;6.43;3.03;;;15.40;99.90;;;;;;4990771;28;20528;-61
2022/09/14 04:52:59;;;;;;;8.70;3.15;;;15.40;99.90;;;;;;4991936;28;20022;-61
2022/09/14 04:55:26;;;;;;;5.13;2.22;;;15.40;99.90;;;;;;4990478;28;20058;-61
2022/09/14 04:57:52;;;;;;;7.78;2.13;;;15.40;99.90;;;;;;4991427;28;20065;-62
2022/09/14 05:00:18;;;;;;;5.90;2.58;;;15.40;99.90;;;;;;4989465;28;20030;-62
2022/09/14 05:02:43;;;;;;;9.68;2.35;;;15.40;99.90;;;;;;4989448;28;20026;-61
2022/09/14 05:05:09;;;;;;;8.00;3.00;;;15.40;99.90;;;;;;4992005;28;20070;-62
2022/09/14 05:07:35;;;;;;;8.13;2.50;;;15.40;99.90;;;;;;4989466;28;20022;-63
2022/09/14 05:10:01;;;;;;;4.35;2.17;;;15.40;99.90;;;;;;4991613;28;20481;-62
2022/09/14 05:12:28;;;;;;;4.30;2.05;;;15.40;99.90;;;;;;4989479;28;20026;-62
2022/09/14 05:14:53;;;;;;;3.70;2.08;;;15.40;99.90;;;;;;4991288;28;20038;-62
2022/09/14 05:17:19;;;;;;;4.70;2.22;;;15.40;99.90;;;;;;4991837;28;20085;-61
2022/09/14 05:19:45;;;;;;;8.52;3.00;;;15.40;99.90;;;;;;4990106;28;20045;-61
2022/09/14 05:22:11;;;;;;;6.40;2.75;;;15.40;99.90;;;;;;4987517;28;20036;-62
2022/09/14 05:24:37;;;;;;;6.00;2.47;;;15.40;99.90;;;;;;4989654;28;20034;-62
2022/09/14 05:27:02;;;;;;;4.80;2.35;;;15.40;99.90;;;;;;4991172;28;20027;-62
2022/09/14 05:29:28;;;;;;;5.93;2.97;;;15.40;99.90;;;;;;4988443;28;20061;-62
2022/09/14 05:31:54;;;;;;;8.18;3.33;;;15.40;99.90;;;;;;4990897;28;20401;-62
2022/09/14 05:34:20;;;;;;;11.77;3.40;;;15.50;99.90;;;;;;4989371;28;20105;-62
2022/09/14 05:36:46;;;;;;;6.60;3.13;;;15.50;99.90;;;;;;4991238;28;20395;-62
2022/09/14 05:39:12;;;;;;;10.52;7.45;;;15.50;99.90;;;;;;4991101;28;20037;-62
2022/09/14 05:41:37;;;;;;;7.55;3.13;;;15.50;99.90;;;;;;4987846;28;20104;-61
2022/09/14 05:44:04;;;;;;;13.68;5.70;;;15.50;99.90;;;;;;4990145;28;20363;-60
2022/09/14 05:46:30;;;;;;;10.43;4.65;;;15.50;99.90;;;;;;4988433;28;20032;-61
2022/09/14 05:48:56;;;;;;;8.48;3.42;;;15.50;99.90;;;;;;4990926;28;20394;-62
2022/09/14 05:51:24;;;;;;;5.50;3.25;;;15.60;99.90;;;;;;4989332;28;20027;-61
2022/09/14 05:53:55;;;;;;;7.82;3.40;;;15.60;99.90;;;;;;4988428;28;20113;-61
2022/09/14 05:56:23;;;;;;;11.25;3.60;;;15.60;99.90;;;;;;4986295;28;20050;-61
2022/09/14 05:58:49;;;;;;;9.77;3.85;;;15.60;99.90;;;;;;4987486;28;20034;-62
2022/09/14 06:01:23;;;;;;;6.82;3.40;;;15.70;99.90;;;;;;4989483;28;20044;-61
2022/09/14 06:03:51;;;;;;;11.38;4.80;;;15.70;99.90;;;;;;4989453;28;20387;-61
2022/09/14 06:06:19;;;;;;;8.85;4.15;;;15.60;99.90;;;;;;4988533;28;20023;-62
2022/09/14 06:08:45;;;;;;;13.52;3.70;;;15.70;99.90;;;;;;4989388;28;20093;-61
2022/09/14 06:11:15;;;;;;;10.70;4.00;;;15.80;99.90;;;;;;4986008;28;20034;-62
2022/09/14 06:13:41;;;;;;;9.80;3.97;;;15.70;99.90;;;;;;4989943;28;20068;-61
2022/09/14 06:16:16;;;;;;;8.82;3.88;;;15.80;99.90;;;;;;4990823;28;20409;-62
2022/09/14 06:18:43;;;;;;;12.35;4.30;;;15.80;99.90;;;;;;4989306;28;20097;-61
2022/09/14 06:21:14;;;;;;;11.77;4.07;;;15.80;99.90;;;;;;4989086;28;20136;-61
2022/09/14 06:23:40;;;;;;;9.07;3.63;;;15.90;99.90;;;;;;4985494;28;20026;-61
2022/09/14 06:26:06;;;;;;;10.18;4.47;;;15.90;99.90;;;;;;4990353;28;20054;-61
2022/09/14 06:28:33;;;;;;;8.30;3.97;;;15.90;99.90;;;;;;4987395;28;20517;-61
2022/09/14 06:31:01;;;;;;;12.40;3.78;;;15.90;99.90;;;;;;4986855;28;20030;-61
2022/09/14 06:33:27;;;;;;;11.48;3.78;;;15.90;99.90;;;;;;4985881;28;20043;-61
2022/09/14 06:36:14;;;;;;;9.07;4.20;;;15.90;99.90;;;;;;4988003;28;20034;-62
2022/09/14 06:38:41;;;;;;;8.63;4.78;;;16.00;99.90;;;;;;4985717;28;20121;-61
2022/09/14 06:41:08;;;;;;;8.73;3.60;;;16.00;99.90;;;;;;4988507;28;20030;-62
2022/09/14 06:43:37;;;;;;;13.57;4.60;;;16.00;99.90;;;;;;4984200;28;20038;-63
2022/09/14 06:46:22;;;;;;;5.68;3.38;;;16.00;99.90;;;;;;4990078;28;20026;-63
2022/09/14 06:49:01;;;;;;;7.82;3.17;;;16.00;99.90;;;;;;4987704;28;20039;-64
2022/09/14 06:51:31;;;;;;;4.38;2.35;;;16.00;99.90;;;;;;4988426;28;20061;-62
2022/09/14 06:54:01;;;;;;;6.78;2.80;;;15.90;99.90;;;;;;4990063;28;20045;-63
2022/09/14 06:56:28;;;;;;;8.95;3.30;;;15.80;99.90;;;;;;4987050;28;20569;-64
2022/09/14 06:58:54;;;;;;;7.80;2.80;;;15.80;99.90;;;;;;4989554;28;20030;-65
2022/09/14 07:01:20;;;;;;;8.30;2.55;;;15.80;99.90;;;;;;4988763;28;20367;-65
2022/09/14 07:03:46;;;;;;;8.15;3.08;;;15.80;99.90;;;;;;4978526;28;20043;-65
2022/09/14 07:06:16;;;;;;;8.85;2.97;;;15.80;99.90;;;;;;4979702;28;20062;-65
2022/09/14 07:08:42;;;;;;;11.15;3.15;;;15.80;99.90;;;;;;4987474;28;20045;-64
2022/09/14 07:11:10;;;;;;;9.57;3.22;;;15.80;99.90;;;;;;4986708;28;20034;-64
2022/09/14 07:13:36;;;;;;;9.55;2.92;;;15.80;99.90;;;;;;4985860;28;20062;-65
2022/09/14 07:16:02;;;;;;;6.88;2.70;;;15.80;99.90;;;;;;4989283;28;20049;-64
2022/09/14 07:18:31;;;;;;;10.35;3.78;;;15.70;99.90;;;;;;4986145;28;20092;-64
2022/09/14 07:21:04;;;;;;;3.10;2.15;;;15.80;99.90;;;;;;4988748;28;20387;-65
2022/09/14 07:23:30;;;;;;;9.63;2.80;;;15.70;99.90;;;;;;4984557;28;20023;-65
2022/09/14 07:26:10;;;;;;;7.43;1.90;;;15.70;99.90;;;;;;4989527;28;20035;-63
2022/09/14 07:28:37;;;;;;;10.32;3.10;;;15.70;99.90;;;;;;4979849;28;20451;-62
2022/09/14 07:31:04;;;;;;;6.00;2.17;;;15.70;99.90;;;;;;4983883;28;20085;-62
2022/09/14 07:33:30;;;;;;;8.23;2.92;;;15.70;99.90;;;;;;4986578;28;20101;-64
2022/09/14 07:36:10;;;;;;;8.68;3.47;;;15.70;99.90;;;;;;4989525;28;20156;-65
2022/09/14 07:38:36;;;;;;;6.35;2.00;;;15.70;99.90;;;;;;4986798;28;20076;-65
2022/09/14 07:41:02;;;;;;;6.60;2.05;;;15.70;99.90;;;;;;4982757;28;20034;-65
2022/09/14 07:43:28;;;;;;;9.15;2.40;;;15.70;99.90;;;;;;4984905;28;20149;-64
2022/09/14 07:45:54;;;;;;;6.85;2.97;;;15.70;99.90;;;;;;4989292;28;20027;-64
2022/09/14 07:48:20;;;;;;;8.98;2.13;;;15.60;99.90;;;;;;4981735;28;20474;-65
2022/09/14 07:50:46;;;;;;;7.25;2.90;;;15.60;99.90;;;;;;4980377;28;20129;-63
2022/09/14 07:53:13;;;;;;;10.35;3.25;;;15.50;99.90;;;;;;4988906;28;20074;-63
2022/09/14 07:55:39;;;;;;;4.40;2.33;;;15.60;99.90;;;;;;4979162;28;20027;-66
2022/09/14 07:58:06;;;;;;;6.57;2.20;;;15.60;99.90;;;;;;4984668;28;20026;-64
2022/09/14 08:00:32;;;;;;;7.75;2.47;;;15.60;99.90;;;;;;4985612;28;20038;-63
2022/09/14 08:02:58;;;;;;;5.00;1.90;;;15.60;99.90;;;;;;4984517;28;20444;-64
2022/09/14 08:05:25;;;;;;;6.47;2.20;;;15.60;99.90;;;;;;4987282;28;20113;-64
2022/09/14 08:07:57;;;;;;;9.48;3.47;;;15.70;99.90;;;;;;4987950;28;20114;-64
2022/09/14 08:10:25;;;;;;;8.65;2.65;;;15.70;99.90;;;;;;4986038;28;20058;-63
2022/09/14 08:12:55;;;;;;;9.00;2.78;;;15.70;99.90;;;;;;4986243;28;20026;-63
2022/09/14 08:15:22;;;;;;;9.50;2.75;;;15.70;99.90;;;;;;4985972;28;20030;-62
2022/09/14 08:17:48;;;;;;;6.53;2.60;;;15.70;99.90;;;;;;4984861;28;20620;-64
2022/09/14 08:20:15;;;;;;;7.28;2.45;;;15.70;99.90;;;;;;4991706;28;20034;-63
2022/09/14 08:22:44;;;;;;;6.65;3.03;;;15.70;99.90;;;;;;4989535;28;20129;-63
2022/09/14 08:25:11;;;;;;;6.32;2.00;;;15.70;99.90;;;;;;4990685;28;20030;-61
2022/09/14 08:27:37;;;;;;;5.15;2.15;;;15.80;99.90;;;;;;4982785;28;20057;-62
2022/09/14 08:30:04;;;;;;;7.53;2.72;;;15.80;99.90;;;;;;4990667;28;20566;-63
2022/09/14 08:32:30;;;;;;;8.75;3.13;;;15.80;99.90;;;;;;4989243;28;20474;-61
2022/09/14 08:34:56;;;;;;;7.63;3.03;;;15.90;99.90;;;;;;4991414;28;20031;-62
2022/09/14 08:37:21;;;;;;;7.95;2.60;;;15.90;99.90;;;;;;4989837;28;20033;-63
2022/09/14 08:39:47;;;;;;;4.80;2.38;;;15.90;99.90;;;;;;4992157;28;20034;-63
2022/09/14 08:42:17;;;;;;;12.10;2.67;;;15.90;99.90;;;;;;4989837;28;20053;-63
2022/09/14 08:44:50;;;;;;;6.75;2.28;;;15.90;99.90;;;;;;4989381;28;20084;-63
2022/09/14 08:47:35;;;;;;;6.45;3.42;;;16.00;99.90;;;;;;4988356;28;20044;-62
2022/09/14 08:50:08;;;;;;;11.30;3.67;;;16.00;99.90;;;;;;4982433;28;20042;-63
2022/09/14 08:52:46;;;;;;;14.02;6.13;;;16.10;99.90;;;;;;4989978;28;20042;-61
2022/09/14 08:55:32;;;;;;;13.20;3.00;;;16.10;99.90;;;;;;4986891;28;20402;-62
2022/09/14 08:58:16;;;;;;;5.65;2.60;;;16.10;99.90;;;;;;4990140;28;20035;-62
2022/09/14 09:00:57;;;;;;;9.05;2.63;;;16.10;99.90;;;;;;4988702;28;20117;-62
2022/09/14 09:03:54;;;;;;;5.05;2.65;;;16.10;99.90;;;;;;4988995;28;20026;-63
2022/09/14 09:06:47;;;;;;;9.52;3.17;;;16.10;99.90;;;;;;4989314;28;20018;-62
2022/09/14 09:09:12;;;;;;;;;;;16.20;99.90;;;;;;4981441;28;20360;-62
2022/09/14 09:11:45;;;;;;;9.30;4.20;;;16.20;99.90;;;;;;4980956;28;20361;-63
2022/09/14 09:14:39;;;;;;;5.78;3.20;;;16.10;99.90;;;;;;4985069;28;20486;-62
2022/09/14 09:17:30;;;;;;;5.00;2.67;;;16.20;99.90;;;;;;4985278;28;20121;-62
2022/09/14 09:19:59;;;;;;;5.47;2.85;;;16.10;99.90;;;;;;4983307;28;20023;-63
2022/09/14 09:22:28;;;;;;;6.00;2.65;;;16.20;99.90;;;;;;4985649;28;20034;-62
2022/09/14 09:24:54;;;;;;;5.53;3.03;;;16.20;99.90;;;;;;4983739;28;20034;-63
2022/09/14 09:27:23;;;;;;;4.95;2.35;;;16.30;99.90;;;;;;4986673;28;20112;-62
2022/09/14 09:29:49;;;;;;;8.07;3.63;;;16.30;99.90;;;;;;4981639;28;20157;-63
2022/09/14 09:32:19;;;;;;;8.50;3.60;;;16.30;99.90;;;;;;4989361;28;20129;-63
2022/09/14 09:34:45;;;;;;;6.30;2.90;;;16.30;99.90;;;;;;4987789;28;20030;-62
2022/09/14 09:37:19;;;;;;;7.13;3.28;;;16.40;99.90;;;;;;4988054;28;20528;-62
2022/09/14 09:39:46;;;;;;;5.15;3.25;;;16.40;99.90;;;;;;4982260;28;20046;-62
2022/09/14 09:42:24;;;;;;;8.18;3.58;;;16.50;99.90;;;;;;4986176;28;20434;-62
2022/09/14 09:44:57;;;;;;;6.03;2.95;;;16.50;99.90;;;;;;4987228;28;20106;-63
2022/09/14 09:47:33;;;;;;;6.72;3.20;;;16.50;99.90;;;;;;4976996;28;20053;-64
2022/09/14 09:50:03;;;;;;;9.25;3.10;;;16.60;99.90;;;;;;4986888;28;20544;-62
2022/09/14 09:52:30;;;;;;;6.43;2.65;;;16.80;99.90;;;;;;4986856;28;20088;-61
2022/09/14 09:54:57;;;;;;;6.78;2.78;;;16.80;99.90;;;;;;4987055;28;20026;-62
2022/09/14 09:57:35;;;;;;;6.38;2.70;;;16.90;99.90;;;;;;4978418;28;20437;-63
2022/09/14 10:00:23;;;;;;;5.47;2.50;;;16.90;99.90;;;;;;4984588;28;20125;-63
2022/09/14 10:02:49;;;;;;;5.15;2.67;;;17.00;99.90;;;;;;4985858;28;20048;-63
2022/09/14 10:05:33;;;;;;;6.65;3.10;;;17.10;99.90;;;;;;4983269;28;20026;-61
2022/09/14 10:08:05;;;;;;;7.25;2.42;;;17.10;99.90;;;;;;4983358;28;20109;-64
2022/09/14 10:10:33;;;;;;;5.53;2.75;;;17.10;99.90;;;;;;4983879;28;20042;-63
2022/09/14 10:13:00;;;;;;;5.57;3.67;;;17.20;99.90;;;;;;4983800;28;20031;-63
2022/09/14 10:15:29;;;;;;;12.45;4.88;;;17.20;99.90;;;;;;4980399;28;20058;-65
2022/09/14 10:18:16;;;;;;;5.20;2.88;;;17.20;99.90;;;;;;4981259;28;20030;-63
2022/09/14 10:20:53;;;;;;;4.82;2.90;;;17.20;99.90;;;;;;4984242;28;20491;-63
2022/09/14 10:23:19;;;;;;;8.63;3.35;;;17.20;99.90;;;;;;4985477;28;20030;-64
2022/09/14 10:25:50;;;;;;;5.45;3.10;;;17.20;99.90;;;;;;4983690;28;20390;-63
2022/09/14 10:28:32;;;;;;;12.02;3.55;;;17.30;99.90;;;;;;4986195;28;20457;-62
2022/09/14 10:31:14;;;;;;;5.43;2.55;;;17.30;99.90;;;;;;4985883;28;20050;-63
2022/09/14 10:33:40;;;;;;;8.05;4.20;;;17.40;99.90;;;;;;4982151;28;20042;-64
2022/09/14 10:36:11;;;;;;;5.13;2.95;;;17.50;99.90;;;;;;4982300;28;20089;-63
2022/09/14 10:38:44;;;;;;;9.95;3.15;;;17.50;99.90;;;;;;4983370;28;20022;-63
2022/09/14 10:41:10;;;;;;;6.35;3.72;;;17.60;99.90;;;;;;4985958;28;20037;-63
2022/09/14 10:43:56;;;;;;;7.38;3.17;;;17.60;99.90;;;;;;4980315;28;20046;-64
2022/09/14 10:46:29;;;;;;;5.43;3.22;;;17.70;99.90;;;;;;4981604;28;20488;-62
2022/09/14 10:49:36;;;;;;;7.25;2.75;;;17.70;99.90;;;;;;4981628;28;20038;-64
2022/09/14 10:52:26;;;;;;;6.03;3.15;;;17.70;99.90;;;;;;4982790;28;20062;-64
2022/09/14 10:55:19;;;;;;;6.68;3.70;;;17.60;99.90;;;;;;4983410;28;20081;-64
2022/09/14 10:57:45;;;;;;;9.15;3.50;;;17.60;99.90;;;;;;4982887;28;20081;-63
2022/09/14 11:00:21;;;;;;;6.60;3.67;;;17.60;99.90;;;;;;4984393;28;20054;-63
2022/09/14 11:03:26;;;;;;;8.20;3.42;;;17.60;99.90;;;;;;4985347;28;20034;-63
2022/09/14 11:06:26;;;;;;;9.20;4.63;;;17.60;99.90;;;;;;4985046;28;20050;-63
2022/09/14 11:08:56;;;;;;;8.23;4.20;;;17.60;99.90;;;;;;4980052;28;20032;-63
2022/09/14 11:11:34;;;;;;;9.07;3.80;;;17.70;99.90;;;;;;4981640;28;20041;-62
2022/09/14 11:14:31;;;;;;;11.52;3.92;;;17.90;99.90;;;;;;4976761;28;20102;-62
2022/09/14 11:17:26;;;;;;;8.90;3.42;;;18.00;99.90;;;;;;4977703;28;20389;-61
2022/09/14 11:19:59;;;;;;;11.48;4.00;;;18.20;99.90;;;;;;4988994;28;20034;-62
2022/09/14 11:22:45;;;;;;;8.00;3.42;;;18.40;99.90;;;;;;4983965;28;20492;-61
2022/09/14 11:25:26;;;;;;;8.43;3.17;;;18.50;99.90;;;;;;4983056;28;20034;-61
2022/09/14 11:27:59;;;;;;;6.43;3.50;;;18.50;99.90;;;;;;4982884;28;20054;-62
2022/09/14 11:30:53;;;;;;;5.22;2.80;;;18.50;99.90;;;;;;4981362;28;20125;-62
2022/09/14 11:33:32;;;;;;;7.40;3.60;;;18.50;99.90;;;;;;4985365;28;20124;-62
2022/09/14 11:36:08;;;;;;;5.25;3.05;;;18.40;99.90;;;;;;4983375;28;20030;-62
2022/09/14 11:38:44;;;;;;;4.45;3.40;;;18.40;99.90;;;;;;4978822;28;20526;-61
2022/09/14 11:41:37;;;;;;;14.45;4.30;;;18.40;99.90;;;;;;4985294;28;20030;-62
2022/09/14 11:44:05;;;;;;;6.22;3.20;;;18.40;99.90;;;;;;4982984;28;20049;-61
2022/09/14 11:46:57;;;;;;;9.15;4.55;;;18.60;99.90;;;;;;4980803;28;20113;-61
2022/09/14 11:49:29;;;;;;;7.68;3.65;;;18.60;99.90;;;;;;4976531;28;20049;-61
2022/09/14 11:52:21;;;;;;;6.20;3.45;;;18.90;99.90;;;;;;4984003;28;20085;-62
2022/09/14 11:54:48;;;;;;;6.63;4.28;;;19.00;99.90;;;;;;4987969;28;20027;-62
2022/09/14 11:57:21;;;;;;;4.35;3.30;;;19.30;99.90;;;;;;4984836;28;20054;-62
2022/09/14 11:59:54;;;;;;;9.75;5.18;;;19.20;99.90;;;;;;4988126;28;20053;-63
2022/09/14 12:02:26;;;;;;;4.95;3.70;;;19.20;99.90;;;;;;4989073;28;20033;-62
2022/09/14 12:05:04;;;;;;;8.90;3.97;;;19.10;99.90;;;;;;4983611;28;20019;-62
2022/09/14 12:07:38;;;;;;;10.15;4.55;;;19.10;99.90;;;;;;4985709;28;20069;-63
2022/09/14 12:10:13;;;;;;;8.90;4.50;;;19.20;99.90;;;;;;4988934;28;20393;-62
2022/09/14 12:12:49;;;;;;;9.82;4.78;;;19.10;99.90;;;;;;4983935;28;20034;-62
2022/09/14 12:15:27;;;;;;;11.40;5.28;;;19.10;99.90;;;;;;4984760;28;20076;-62
2022/09/14 12:18:18;;;;;;;9.60;5.30;;;19.00;99.90;;;;;;4987768;28;20030;-62
2022/09/14 12:20:49;;;;;;;9.95;4.40;;;19.00;99.90;;;;;;4987730;28;20034;-63
2022/09/14 12:23:41;;;;;;;5.88;3.92;;;19.00;99.90;;;;;;4989249;28;20034;-63
2022/09/14 12:26:09;;;;;;;5.28;3.50;;;19.00;99.90;;;;;;4983812;28;20026;-63
2022/09/14 12:28:38;;;;;;;9.93;4.32;;;19.00;99.90;;;;;;4980411;28;20034;-63
2022/09/14 12:31:04;;;;;;;8.93;4.63;;;18.90;99.90;;;;;;4989313;28;20517;-64
2022/09/14 12:33:35;;;;;;;10.68;5.72;;;18.80;99.90;;;;;;4981251;28;20031;-62
2022/09/14 12:36:09;;;;;;;10.35;5.30;;;18.80;99.90;;;;;;4981216;28;20042;-63
2022/09/14 12:39:01;;;;;;;9.98;5.25;;;18.70;99.90;;;;;;4985542;28;20114;-63
2022/09/14 12:41:27;;;;;;;15.23;6.15;;;18.70;99.90;;;;;;4984615;28;20033;-63
2022/09/14 12:43:57;;;;;;;9.30;4.78;;;18.70;99.90;;;;;;4987093;28;20402;-64
2022/09/14 12:46:23;;;;;;;16.33;5.40;;;18.70;99.90;;;;;;4979615;28;20030;-63
2022/09/14 12:49:21;;;;;;;12.18;7.03;;;18.70;99.90;;;;;;4986870;28;20053;-63
2022/09/14 12:51:48;;;;;;;13.63;5.38;;;18.60;99.90;;;;;;4981684;28;20138;-62
2022/09/14 12:54:27;;;;;;;8.45;5.10;;;18.60;99.90;;;;;;4986940;28;20088;-62
2022/09/14 12:57:02;;;;;;;13.00;5.10;;;18.70;99.90;;;;;;4997997;28;20022;-63
2022/09/14 12:59:53;;;;;;;16.70;6.10;;;18.60;99.90;;;;;;4982857;28;20546;-62
2022/09/14 13:02:40;;;;;;;9.32;5.57;;;18.50;99.90;;;;;;4988054;28;20121;-61
2022/09/14 13:05:22;;;;;;;12.00;5.60;;;18.40;99.90;;;;;;4996839;28;20069;-62
2022/09/14 13:07:48;;;;;;;;;;;18.40;99.90;;;;;;4986154;28;20203;-62
2022/09/14 13:10:23;;;;;;;8.93;5.32;;;18.40;99.90;;;;;;4984595;28;19921;-62